createdAt,value
2023-03-29T00:03:00.035Z,83.13
2023-03-29T00:07:02.335Z,83.11
2023-03-29T00:11:04.549Z,83.38
2023-03-29T00:15:07.642Z,84.36
2023-03-29T00:19:10.472Z,83.14
2023-03-29T00:23:11.954Z,82.29
2023-03-29T00:27:13.620Z,82.65
2023-03-29T00:31:17.564Z,82.31
2023-03-29T00:35:20.702Z,81.83
2023-03-29T00:39:22.228Z,81.92
2023-03-29T00:43:24.105Z,82.40
2023-03-29T00:47:29.103Z,82.87
2023-03-29T00:51:36.613Z,82.77
2023-03-29T00:55:43.106Z,83.36
2023-03-29T00:59:46.902Z,84.87
2023-03-29T01:03:53.078Z,82.77
2023-03-29T01:07:58.899Z,83.11
2023-03-29T01:12:05.431Z,82.75
2023-03-29T01:16:10.351Z,82.31
2023-03-29T01:20:19.561Z,82.17
2023-03-29T01:24:38.717Z,81.95
2023-03-29T01:28:46.681Z,82.86
2023-03-29T01:32:54.332Z,83.05
2023-03-29T01:37:00.691Z,82.74
2023-03-29T01:41:02.506Z,82.90
2023-03-29T01:45:16.643Z,82.04
2023-03-29T01:49:25.488Z,82.18
2023-03-29T01:53:31.698Z,82.58
2023-03-29T01:57:34.301Z,80.95
2023-03-29T02:01:42.688Z,80.66
2023-03-29T02:05:45.347Z,81.09
2023-03-29T02:09:48.078Z,79.95
2023-03-29T02:13:49.547Z,79.68
2023-03-29T02:17:52.593Z,79.61
2023-03-29T02:22:00.433Z,78.99
2023-03-29T02:26:03.000Z,79.01
2023-03-29T02:30:05.413Z,80.14
2023-03-29T02:34:13.287Z,80.02
2023-03-29T02:38:15.395Z,80.79
2023-03-29T02:42:19.100Z,81.48
2023-03-29T02:46:21.043Z,80.45
2023-03-29T02:50:25.517Z,80.68
2023-03-29T02:54:28.590Z,80.10
2023-03-29T02:58:30.118Z,79.76
2023-03-29T03:02:31.621Z,80.08
2023-03-29T03:06:34.456Z,78.67
2023-03-29T03:10:36.377Z,77.97
2023-03-29T03:14:37.849Z,79.38
2023-03-29T03:18:39.306Z,80.21
2023-03-29T03:22:44.489Z,79.22
2023-03-29T03:26:45.909Z,80.50
2023-03-29T03:30:47.507Z,80.98
2023-03-29T03:34:48.929Z,79.56
2023-03-29T03:38:51.818Z,77.82
2023-03-29T03:42:53.252Z,77.95
2023-03-29T03:46:54.712Z,78.26
2023-03-29T03:50:57.918Z,77.08
2023-03-29T03:55:00.720Z,76.58
2023-03-29T03:59:02.214Z,77.90
2023-03-29T04:03:04.101Z,75.89
2023-03-29T04:07:05.751Z,77.23
2023-03-29T04:11:08.533Z,77.16
2023-03-29T04:15:10.168Z,77.91
2023-03-29T04:19:11.603Z,79.58
2023-03-29T04:23:13.666Z,77.81
2023-03-29T04:27:16.523Z,78.43
2023-03-29T04:31:18.059Z,77.57
2023-03-29T04:35:19.568Z,77.70
2023-03-29T04:39:21.204Z,78.69
2023-03-29T04:43:24.044Z,78.85
2023-03-29T04:47:25.509Z,78.72
2023-03-29T04:51:26.960Z,78.10
2023-03-29T04:55:28.414Z,79.18
2023-03-29T04:59:31.481Z,78.96
2023-03-29T05:03:33.009Z,78.96
2023-03-29T05:07:34.437Z,78.80
2023-03-29T05:11:36.053Z,78.41
2023-03-29T05:15:41.152Z,78.65
2023-03-29T05:19:42.841Z,78.55
2023-03-29T05:23:44.291Z,78.91
2023-03-29T05:27:45.938Z,77.83
2023-03-29T05:31:49.103Z,77.42
2023-03-29T05:35:58.874Z,78.21
2023-03-29T05:40:05.513Z,76.79
2023-03-29T05:44:07.852Z,78.01
2023-03-29T05:48:10.732Z,78.13
2023-03-29T05:52:12.273Z,76.94
2023-03-29T05:56:13.732Z,77.82
2023-03-29T06:00:16.403Z,78.52
2023-03-29T06:04:19.289Z,79.00
2023-03-29T06:08:20.828Z,78.66
2023-03-29T06:12:22.281Z,78.35
2023-03-29T06:16:23.814Z,76.54
2023-03-29T06:20:27.385Z,77.16
2023-03-29T06:24:29.003Z,77.78
2023-03-29T06:28:30.605Z,77.51
2023-03-29T06:32:33.707Z,76.81
2023-03-29T06:36:36.530Z,76.44
2023-03-29T06:40:38.217Z,75.44
2023-03-29T06:44:39.700Z,75.40
2023-03-29T06:48:41.178Z,75.32
2023-03-29T06:52:44.299Z,74.61
2023-03-29T06:56:45.798Z,74.88
2023-03-29T07:00:47.323Z,75.12
2023-03-29T07:04:48.809Z,75.47
2023-03-29T07:08:51.731Z,75.30
2023-03-29T07:12:53.606Z,74.61
2023-03-29T07:16:55.312Z,73.29
2023-03-29T07:20:56.754Z,72.74
2023-03-29T07:24:59.575Z,72.84
2023-03-29T07:29:01.050Z,73.73
2023-03-29T07:33:03.132Z,72.99
2023-03-29T07:37:04.635Z,74.45
2023-03-29T07:41:07.776Z,75.07
2023-03-29T07:45:11.036Z,76.66
2023-03-29T07:49:12.542Z,76.81
2023-03-29T07:53:14.083Z,76.80
2023-03-29T07:57:16.932Z,75.44
2023-03-29T08:01:19.635Z,76.27
2023-03-29T08:05:37.968Z,76.29
2023-03-29T08:09:42.504Z,76.73
2023-03-29T08:13:45.312Z,76.71
2023-03-29T08:17:46.871Z,76.00
2023-03-29T08:21:48.403Z,76.84
2023-03-29T08:25:49.829Z,76.24
2023-03-29T08:29:52.619Z,76.80
2023-03-29T08:33:54.076Z,75.35
2023-03-29T08:37:55.525Z,75.67
2023-03-29T08:42:08.500Z,76.93
2023-03-29T08:46:23.242Z,75.97
2023-03-29T08:50:32.595Z,76.71
2023-03-29T08:54:40.896Z,77.24
2023-03-29T08:58:44.829Z,78.00
2023-03-29T09:02:49.285Z,76.58
2023-03-29T09:06:50.906Z,77.23
2023-03-29T09:11:08.395Z,75.24
2023-03-29T09:15:15.163Z,76.01
2023-03-29T09:19:26.913Z,75.50
2023-03-29T09:23:45.608Z,75.02
2023-03-29T09:27:49.832Z,76.06
2023-03-29T09:31:53.134Z,73.89
2023-03-29T09:36:01.930Z,73.70
2023-03-29T09:40:11.305Z,73.73
2023-03-29T09:48:22.995Z,73.32
2023-03-29T09:52:25.915Z,73.07
2023-03-29T09:56:27.733Z,72.53
2023-03-29T10:00:29.191Z,73.11
2023-03-29T10:04:30.746Z,70.95
2023-03-29T10:08:40.416Z,71.38
2023-03-29T10:12:46.156Z,70.46
2023-03-29T10:16:55.324Z,70.41
2023-03-29T10:20:59.335Z,72.04
2023-03-29T10:25:02.092Z,71.91
2023-03-29T10:29:06.226Z,70.49
2023-03-29T10:33:16.838Z,71.42
2023-03-29T10:37:19.629Z,72.77
2023-03-29T10:41:23.397Z,72.93
2023-03-29T10:45:27.305Z,70.43
2023-03-29T10:49:28.759Z,70.65
2023-03-29T10:53:32.361Z,69.91
2023-03-29T10:57:44.752Z,70.76
2023-03-29T11:01:57.840Z,71.34
2023-03-29T11:06:07.650Z,71.10
2023-03-29T11:10:27.339Z,70.62
2023-03-29T11:14:43.026Z,68.99
2023-03-29T11:19:23.907Z,70.95
2023-03-29T11:23:40.412Z,70.60
2023-03-29T11:27:48.799Z,68.08
2023-03-29T11:32:04.781Z,67.04
2023-03-29T11:36:14.433Z,68.73
2023-03-29T11:40:33.790Z,66.85
2023-03-29T11:44:37.823Z,67.54
2023-03-29T11:48:47.059Z,67.12
2023-03-29T11:52:53.853Z,67.36
2023-03-29T11:56:59.802Z,67.36
2023-03-29T12:01:06.678Z,67.70
2023-03-29T12:05:18.108Z,66.38
2023-03-29T12:09:29.262Z,66.73
2023-03-29T12:13:37.383Z,66.29
2023-03-29T12:17:43.689Z,65.30
2023-03-29T12:21:48.395Z,66.18
2023-03-29T12:25:57.070Z,65.81
2023-03-29T12:30:21.432Z,65.38
2023-03-29T12:34:44.521Z,64.72
2023-03-29T12:38:51.684Z,63.70
2023-03-29T12:42:56.168Z,65.29
2023-03-29T12:46:59.681Z,65.54
2023-03-29T12:51:03.587Z,65.25
2023-03-29T12:55:22.461Z,63.98
2023-03-29T12:59:36.476Z,65.43
2023-03-29T13:03:47.641Z,63.16
2023-03-29T13:07:49.124Z,65.11
2023-03-29T13:11:54.308Z,65.13
2023-03-29T13:15:56.707Z,65.32
2023-03-29T13:20:28.242Z,65.48
2023-03-29T13:24:44.084Z,65.06
2023-03-29T13:29:02.966Z,64.39
2023-03-29T13:33:16.927Z,64.05
2023-03-29T13:37:28.810Z,64.91
2023-03-29T13:41:33.291Z,65.58
2023-03-29T13:45:36.871Z,66.85
2023-03-29T13:49:42.252Z,66.97
2023-03-29T13:53:48.180Z,67.30
2023-03-29T13:57:53.261Z,67.14
2023-03-29T14:01:58.735Z,66.72
2023-03-29T14:06:02.417Z,68.19
2023-03-29T14:10:04.821Z,67.62
2023-03-29T14:14:07.139Z,67.93
2023-03-29T14:18:12.155Z,68.09
2023-03-29T14:22:15.885Z,69.21
2023-03-29T14:26:19.718Z,68.62
2023-03-29T14:30:25.815Z,68.59
2023-03-29T14:34:28.626Z,70.55
2023-03-29T14:38:31.527Z,71.62
2023-03-29T14:42:33.076Z,72.35
2023-03-29T14:46:35.422Z,71.45
2023-03-29T14:50:38.614Z,69.13
2023-03-29T14:54:48.100Z,67.47
2023-03-29T14:58:49.664Z,67.85
2023-03-29T15:02:55.111Z,68.38
2023-03-29T15:06:58.512Z,68.15
2023-03-29T15:11:00.888Z,68.39
2023-03-29T15:15:03.047Z,69.75
2023-03-29T15:19:04.731Z,73.40
2023-03-29T15:23:21.397Z,76.92
2023-03-29T15:27:22.897Z,78.13
2023-03-29T15:31:26.854Z,76.55
2023-03-29T15:35:28.518Z,77.26
2023-03-29T15:39:31.933Z,77.07
2023-03-29T15:43:33.695Z,77.09
2023-03-29T15:47:35.182Z,79.48
2023-03-29T15:51:36.687Z,77.72
2023-03-29T15:55:43.366Z,76.55
2023-03-29T15:59:45.130Z,76.44
2023-03-29T16:03:48.112Z,77.38
2023-03-29T16:07:49.750Z,75.27
2023-03-29T16:11:52.633Z,76.37
2023-03-29T16:15:54.083Z,75.94
2023-03-29T16:19:55.548Z,75.13
2023-03-29T16:23:57.036Z,76.74
2023-03-29T16:27:59.831Z,76.30
2023-03-29T16:32:01.346Z,75.47
2023-03-29T16:36:03.814Z,75.50
2023-03-29T16:40:06.837Z,76.08
2023-03-29T16:44:13.880Z,77.02
2023-03-29T16:48:17.073Z,76.24
2023-03-29T16:52:18.572Z,76.49
2023-03-29T16:56:20.154Z,76.17
2023-03-29T17:00:23.229Z,76.78
2023-03-29T17:04:24.843Z,76.93
2023-03-29T17:08:26.426Z,78.04
2023-03-29T17:12:27.931Z,77.70
2023-03-29T17:16:30.816Z,77.46
2023-03-29T17:20:32.276Z,78.14
2023-03-29T17:24:33.802Z,78.00
2023-03-29T17:28:35.244Z,78.29
2023-03-29T17:32:38.034Z,78.26
2023-03-29T17:36:39.543Z,77.74
2023-03-29T17:40:40.950Z,79.11
2023-03-29T17:44:42.397Z,79.04
2023-03-29T17:48:46.212Z,79.40
2023-03-29T17:52:47.682Z,79.39
2023-03-29T17:56:49.493Z,80.05
2023-03-29T18:00:51.066Z,80.21
2023-03-29T18:04:54.000Z,79.46
2023-03-29T18:08:55.461Z,79.39
2023-03-29T18:12:57.059Z,80.58
2023-03-29T18:16:58.564Z,79.97
2023-03-29T18:21:01.649Z,79.80
2023-03-29T18:25:03.399Z,80.40
2023-03-29T18:29:04.851Z,80.45
2023-03-29T18:33:06.389Z,81.32
2023-03-29T18:37:09.275Z,82.29
2023-03-29T18:41:13.086Z,81.18
2023-03-29T18:45:14.710Z,80.93
2023-03-29T18:49:16.132Z,81.86
2023-03-29T18:53:19.528Z,81.18
2023-03-29T18:57:21.214Z,81.01
2023-03-29T19:01:22.844Z,81.65
2023-03-29T19:05:24.298Z,80.84
2023-03-29T19:09:27.100Z,80.84
2023-03-29T19:13:28.576Z,81.40
2023-03-29T19:17:30.025Z,81.23
2023-03-29T19:21:31.488Z,81.15
2023-03-29T19:25:34.272Z,80.20
2023-03-29T19:29:35.763Z,80.58
2023-03-29T19:33:37.253Z,80.04
2023-03-29T19:37:38.793Z,79.74
2023-03-29T19:41:41.951Z,79.46
2023-03-29T19:45:43.697Z,80.35
2023-03-29T19:49:45.127Z,80.86
2023-03-29T19:53:46.562Z,81.48
2023-03-29T19:57:49.435Z,82.32
2023-03-29T20:01:51.197Z,81.79
2023-03-29T20:05:52.756Z,80.86
2023-03-29T20:09:54.198Z,81.42
2023-03-29T20:13:57.161Z,80.94
2023-03-29T20:17:59.847Z,80.64
2023-03-29T20:22:01.453Z,79.53
2023-03-29T20:26:03.027Z,79.00
2023-03-29T20:30:07.761Z,78.31
2023-03-29T20:34:09.304Z,77.81
2023-03-29T20:38:10.834Z,78.27
2023-03-29T20:42:12.292Z,78.42
2023-03-29T20:46:15.168Z,79.44
2023-03-29T20:50:18.924Z,79.75
2023-03-29T20:54:20.498Z,80.31
2023-03-29T20:58:21.937Z,80.50
2023-03-29T21:02:24.869Z,79.84
2023-03-29T21:06:26.589Z,80.56
2023-03-29T21:10:28.125Z,80.90
2023-03-29T21:14:29.592Z,79.09
2023-03-29T21:18:32.398Z,79.71
2023-03-29T21:22:34.927Z,79.75
2023-03-29T21:26:37.242Z,79.69
2023-03-29T21:30:38.878Z,79.92
2023-03-29T21:34:41.677Z,80.46
2023-03-29T21:38:43.164Z,79.90
2023-03-29T21:42:44.636Z,80.08
2023-03-29T21:46:46.353Z,80.39
2023-03-29T21:50:49.843Z,80.13
2023-03-29T21:54:52.324Z,80.96
2023-03-29T21:58:54.141Z,80.74
2023-03-29T22:02:55.607Z,81.72
2023-03-29T22:06:58.421Z,81.87
2023-03-29T22:11:07.509Z,81.81
2023-03-29T22:15:11.067Z,81.78
2023-03-29T22:19:12.624Z,81.91
2023-03-29T22:23:15.418Z,81.96
2023-03-29T22:27:16.856Z,81.13
2023-03-29T22:31:20.995Z,81.69
2023-03-29T22:35:22.471Z,81.52
2023-03-29T22:39:25.330Z,81.24
2023-03-29T22:43:26.802Z,81.32
2023-03-29T22:47:28.403Z,81.08
2023-03-29T22:51:30.045Z,81.26
2023-03-29T22:55:32.837Z,80.59
2023-03-29T22:59:34.353Z,81.39
2023-03-29T23:03:36.147Z,80.45
2023-03-29T23:07:37.599Z,80.61
2023-03-29T23:11:40.393Z,80.14
2023-03-29T23:15:44.082Z,81.06
2023-03-29T23:19:45.524Z,80.01
2023-03-29T23:23:46.974Z,80.28
2023-03-29T23:27:49.795Z,80.86
2023-03-29T23:31:51.262Z,80.17
2023-03-29T23:35:54.058Z,79.90
2023-03-29T23:39:55.646Z,80.14
2023-03-29T23:43:58.467Z,82.17
2023-03-29T23:47:59.954Z,81.93
2023-03-29T23:52:01.499Z,82.82
2023-03-29T23:56:05.358Z,81.52
